createdAt,value
2022-11-16T00:01:31.371Z,72.96
2022-11-16T00:04:03.884Z,72.75
2022-11-16T00:06:34.259Z,72.94
2022-11-16T00:09:23.143Z,72.72
2022-11-16T00:11:55.932Z,72.65
2022-11-16T00:14:28.945Z,72.98
2022-11-16T00:17:00.222Z,72.78
2022-11-16T00:19:31.006Z,72.81
2022-11-16T00:22:01.615Z,72.72
2022-11-16T00:24:31.860Z,72.37
2022-11-16T00:27:02.244Z,72.63
2022-11-16T00:29:32.545Z,71.99
2022-11-16T00:32:03.137Z,72.41
2022-11-16T00:34:33.392Z,72.01
2022-11-16T00:37:03.759Z,71.88
2022-11-16T00:39:36.838Z,71.48
2022-11-16T00:42:07.126Z,71.46
2022-11-16T00:44:37.480Z,71.60
2022-11-16T00:47:07.905Z,71.48
2022-11-16T00:49:38.817Z,71.29
2022-11-16T00:52:09.162Z,71.66
2022-11-16T00:54:39.458Z,71.44
2022-11-16T00:57:09.844Z,71.21
2022-11-16T00:59:40.083Z,71.72
2022-11-16T01:02:10.581Z,71.48
2022-11-16T01:04:41.175Z,71.07
2022-11-16T01:07:12.277Z,71.39
2022-11-16T01:09:42.663Z,71.02
2022-11-16T01:12:13.284Z,71.08
2022-11-16T01:14:46.249Z,71.33
2022-11-16T01:17:16.586Z,70.83
2022-11-16T01:19:46.947Z,70.86
2022-11-16T01:22:17.270Z,70.75
2022-11-16T01:24:47.965Z,70.43
2022-11-16T01:27:18.301Z,70.32
2022-11-16T01:29:48.755Z,70.20
2022-11-16T01:32:19.140Z,70.05
2022-11-16T01:34:49.941Z,70.48
2022-11-16T01:37:20.307Z,70.28
2022-11-16T01:39:51.483Z,70.23
2022-11-16T01:42:24.808Z,69.81
2022-11-16T01:44:57.189Z,69.62
2022-11-16T01:47:28.026Z,69.97
2022-11-16T01:50:16.288Z,69.85
2022-11-16T01:52:57.498Z,70.06
2022-11-16T01:55:31.253Z,69.80
2022-11-16T01:58:02.847Z,69.70
2022-11-16T02:00:33.932Z,69.52
2022-11-16T02:03:04.282Z,69.69
2022-11-16T02:05:50.514Z,68.54
2022-11-16T02:09:16.114Z,68.76
2022-11-16T02:12:11.688Z,68.31
2022-11-16T02:14:53.164Z,68.83
2022-11-16T02:18:14.106Z,68.41
2022-11-16T02:20:52.466Z,68.30
2022-11-16T02:23:41.916Z,68.35
2022-11-16T02:26:23.072Z,68.80
2022-11-16T02:29:08.033Z,68.51
2022-11-16T02:31:42.763Z,68.31
2022-11-16T02:34:16.909Z,68.51
2022-11-16T02:36:51.902Z,68.88
2022-11-16T02:39:27.317Z,68.49
2022-11-16T02:41:59.655Z,68.15
2022-11-16T02:44:34.853Z,67.87
2022-11-16T02:47:09.645Z,68.21
2022-11-16T02:49:45.459Z,68.12
2022-11-16T02:52:18.113Z,68.05
2022-11-16T02:54:48.236Z,68.32
2022-11-16T02:57:37.718Z,67.25
2022-11-16T03:00:10.240Z,68.19
2022-11-16T03:02:54.252Z,67.88
2022-11-16T03:05:33.670Z,67.30
2022-11-16T03:08:15.894Z,68.05
2022-11-16T03:11:10.169Z,68.12
2022-11-16T03:13:41.071Z,67.87
2022-11-16T03:16:27.701Z,67.47
2022-11-16T03:19:00.536Z,65.86
2022-11-16T03:21:59.641Z,66.82
2022-11-16T03:24:30.117Z,67.60
2022-11-16T03:27:25.781Z,65.70
2022-11-16T03:30:04.807Z,67.32
2022-11-16T03:32:49.396Z,67.34
2022-11-16T03:35:34.714Z,66.78
2022-11-16T03:38:08.045Z,67.50
2022-11-16T03:40:40.826Z,67.72
2022-11-16T03:43:11.446Z,67.80
2022-11-16T03:45:41.873Z,67.45
2022-11-16T03:48:12.148Z,67.41
2022-11-16T03:50:43.270Z,67.71
2022-11-16T03:53:13.394Z,67.77
2022-11-16T03:55:49.621Z,67.44
2022-11-16T03:58:20.056Z,67.45
2022-11-16T04:00:50.379Z,66.96
2022-11-16T04:03:21.137Z,67.49
2022-11-16T04:06:09.861Z,67.10
2022-11-16T04:08:58.427Z,66.89
2022-11-16T04:11:47.037Z,67.01
2022-11-16T04:14:41.597Z,67.35
2022-11-16T04:17:37.581Z,66.28
2022-11-16T04:20:31.930Z,66.57
2022-11-16T04:23:35.291Z,64.79
2022-11-16T04:26:08.561Z,66.84
2022-11-16T04:28:39.797Z,66.46
2022-11-16T04:31:28.660Z,66.08
2022-11-16T04:34:17.461Z,66.08
2022-11-16T04:37:06.247Z,66.32
2022-11-16T04:39:36.347Z,65.64
2022-11-16T04:42:19.295Z,65.00
2022-11-16T04:45:07.779Z,65.83
2022-11-16T04:47:37.969Z,66.42
2022-11-16T04:50:08.391Z,65.62
2022-11-16T04:52:38.515Z,65.81
2022-11-16T04:55:09.169Z,66.01
2022-11-16T04:57:39.799Z,66.13
2022-11-16T05:00:10.839Z,65.86
2022-11-16T05:02:41.368Z,66.12
2022-11-16T05:05:12.283Z,65.67
2022-11-16T05:07:43.007Z,66.07
2022-11-16T05:10:14.690Z,65.49
2022-11-16T05:12:44.915Z,65.85
2022-11-16T05:15:15.188Z,65.43
2022-11-16T05:17:45.683Z,65.49
2022-11-16T05:20:34.596Z,65.85
2022-11-16T05:23:05.018Z,65.26
2022-11-16T05:25:36.988Z,65.29
2022-11-16T05:28:07.261Z,65.30
2022-11-16T05:30:37.412Z,65.02
2022-11-16T05:33:07.489Z,65.54
2022-11-16T05:35:37.653Z,64.83
2022-11-16T05:38:07.765Z,65.28
2022-11-16T05:40:38.503Z,64.93
2022-11-16T05:43:08.663Z,64.92
2022-11-16T05:45:38.925Z,64.97
2022-11-16T05:48:09.050Z,65.26
2022-11-16T05:50:42.786Z,64.70
2022-11-16T05:53:13.468Z,64.71
2022-11-16T05:55:43.811Z,64.46
2022-11-16T05:58:13.910Z,64.72
2022-11-16T06:00:47.151Z,64.67
2022-11-16T06:03:17.370Z,65.12
2022-11-16T06:05:47.664Z,64.31
2022-11-16T06:08:17.857Z,64.63
2022-11-16T06:10:49.000Z,64.69
2022-11-16T06:13:19.547Z,64.25
2022-11-16T06:15:55.357Z,64.75
2022-11-16T06:18:25.970Z,64.57
2022-11-16T06:20:56.505Z,64.32
2022-11-16T06:23:26.623Z,64.58
2022-11-16T06:25:57.118Z,64.12
2022-11-16T06:28:28.291Z,64.62
2022-11-16T06:30:58.481Z,64.67
2022-11-16T06:33:33.389Z,64.61
2022-11-16T06:36:04.342Z,64.38
2022-11-16T06:38:34.798Z,64.19
2022-11-16T06:41:05.264Z,64.23
2022-11-16T06:43:35.388Z,64.29
2022-11-16T06:46:05.705Z,63.97
2022-11-16T06:48:36.058Z,64.12
2022-11-16T06:51:06.609Z,64.06
2022-11-16T06:53:36.714Z,63.73
2022-11-16T06:56:07.244Z,63.44
2022-11-16T06:58:37.643Z,63.60
2022-11-16T07:01:09.997Z,64.39
2022-11-16T07:03:40.186Z,64.17
2022-11-16T07:06:12.432Z,63.85
2022-11-16T07:08:42.811Z,64.17
2022-11-16T07:11:12.931Z,63.68
2022-11-16T07:13:43.146Z,63.97
2022-11-16T07:16:13.326Z,63.54
2022-11-16T07:18:43.501Z,63.29
2022-11-16T07:21:15.853Z,63.25
2022-11-16T07:23:45.998Z,63.24
2022-11-16T07:26:16.217Z,63.60
2022-11-16T07:28:48.446Z,63.53
2022-11-16T07:31:18.902Z,63.07
2022-11-16T07:33:49.010Z,63.12
2022-11-16T07:36:19.426Z,63.15
2022-11-16T07:38:49.605Z,63.23
2022-11-16T07:41:20.127Z,62.71
2022-11-16T07:43:53.222Z,62.73
2022-11-16T07:49:15.926Z,62.68
2022-11-16T07:51:46.609Z,62.94
2022-11-16T07:54:16.729Z,62.82
2022-11-16T07:56:46.796Z,62.87
2022-11-16T07:59:17.075Z,62.99
2022-11-16T08:01:48.133Z,62.71
2022-11-16T08:04:18.468Z,62.78
2022-11-16T08:06:51.090Z,62.74
2022-11-16T08:09:21.348Z,62.88
2022-11-16T08:11:55.065Z,63.29
2022-11-16T08:14:25.231Z,63.46
2022-11-16T08:16:55.409Z,63.09
2022-11-16T08:19:25.530Z,63.25
2022-11-16T08:21:55.772Z,62.91
2022-11-16T08:24:26.075Z,62.81
2022-11-16T08:26:57.502Z,62.42
2022-11-16T08:29:30.185Z,62.64
2022-11-16T08:32:00.362Z,61.85
2022-11-16T08:34:30.540Z,62.09
2022-11-16T08:37:00.764Z,62.20
2022-11-16T08:39:30.921Z,61.98
2022-11-16T08:42:01.327Z,61.12
2022-11-16T08:44:31.579Z,61.36
2022-11-16T08:47:01.717Z,61.28
2022-11-16T08:49:31.798Z,61.59
2022-11-16T08:52:01.910Z,61.41
2022-11-16T08:54:32.478Z,61.16
2022-11-16T08:57:02.585Z,61.07
2022-11-16T08:59:32.911Z,61.09
2022-11-16T09:02:03.121Z,61.33
2022-11-16T09:04:37.016Z,61.49
2022-11-16T09:07:07.496Z,60.73
2022-11-16T09:09:37.660Z,60.89
2022-11-16T09:12:07.872Z,61.40
2022-11-16T09:14:38.005Z,61.12
2022-11-16T09:17:11.123Z,61.12
2022-11-16T09:19:41.287Z,60.96
2022-11-16T09:22:13.516Z,61.16
2022-11-16T09:24:45.473Z,60.87
2022-11-16T09:27:19.147Z,60.80
2022-11-16T09:29:56.501Z,60.77
2022-11-16T09:32:27.862Z,60.83
2022-11-16T09:34:58.918Z,60.91
2022-11-16T09:37:29.828Z,60.66
2022-11-16T09:40:01.148Z,60.57
2022-11-16T09:43:09.116Z,58.50
2022-11-16T09:45:50.914Z,59.43
2022-11-16T09:48:23.933Z,60.41
2022-11-16T09:51:08.576Z,59.57
2022-11-16T09:54:20.696Z,59.04
2022-11-16T09:56:57.701Z,59.88
2022-11-16T09:59:42.143Z,58.55
2022-11-16T10:02:36.201Z,57.55
2022-11-16T10:05:23.578Z,59.46
2022-11-16T10:08:13.976Z,58.88
2022-11-16T10:11:23.060Z,58.07
2022-11-16T10:14:23.402Z,58.39
2022-11-16T10:17:26.916Z,58.59
2022-11-16T10:20:17.277Z,59.13
2022-11-16T10:22:58.774Z,59.61
2022-11-16T10:25:48.685Z,58.51
2022-11-16T10:28:34.283Z,59.47
2022-11-16T10:31:37.057Z,58.62
2022-11-16T10:34:14.149Z,59.86
2022-11-16T10:36:46.427Z,60.34
2022-11-16T10:39:22.135Z,60.37
2022-11-16T10:41:54.610Z,60.63
2022-11-16T10:44:39.051Z,60.15
2022-11-16T10:47:35.485Z,58.68
2022-11-16T10:50:17.390Z,59.33
2022-11-16T10:52:48.261Z,60.75
2022-11-16T10:55:22.566Z,60.41
2022-11-16T10:58:04.311Z,60.18
2022-11-16T11:00:40.248Z,60.76
2022-11-16T11:03:12.112Z,60.37
2022-11-16T11:05:55.258Z,59.83
2022-11-16T11:08:33.364Z,60.16
2022-11-16T11:11:24.877Z,60.16
2022-11-16T11:14:21.834Z,59.27
2022-11-16T11:16:54.886Z,60.84
2022-11-16T11:19:27.953Z,60.28
2022-11-16T11:22:01.239Z,60.01
2022-11-16T11:24:45.725Z,60.35
2022-11-16T11:27:23.375Z,59.96
2022-11-16T11:29:55.817Z,59.99
2022-11-16T11:32:39.028Z,59.58
2022-11-16T11:35:29.314Z,58.14
2022-11-16T11:38:07.748Z,59.74
2022-11-16T11:40:38.792Z,59.83
2022-11-16T11:43:22.365Z,58.92
2022-11-16T11:46:09.246Z,59.71
2022-11-16T11:49:00.189Z,59.33
2022-11-16T11:51:35.249Z,59.41
2022-11-16T11:54:08.155Z,60.50
2022-11-16T11:56:38.763Z,59.98
2022-11-16T11:59:15.965Z,59.68
2022-11-16T12:02:00.783Z,59.75
2022-11-16T12:04:50.180Z,59.75
2022-11-16T12:07:35.429Z,59.67
2022-11-16T12:10:25.584Z,59.79
2022-11-16T12:13:26.483Z,60.01
2022-11-16T12:16:27.326Z,60.48
2022-11-16T12:19:26.957Z,59.24
2022-11-16T12:22:11.982Z,58.94
2022-11-16T12:24:51.095Z,59.94
2022-11-16T12:27:32.883Z,60.42
2022-11-16T12:30:21.474Z,58.60
2022-11-16T12:33:05.242Z,60.63
2022-11-16T12:36:03.402Z,62.21
2022-11-16T12:38:42.583Z,63.40
2022-11-16T12:41:24.758Z,62.51
2022-11-16T12:44:08.123Z,63.15
2022-11-16T12:46:41.178Z,63.67
2022-11-16T12:49:56.045Z,64.36
2022-11-16T12:52:44.221Z,63.19
2022-11-16T12:55:33.810Z,63.57
2022-11-16T12:58:27.972Z,63.75
2022-11-16T13:01:29.085Z,64.55
2022-11-16T13:04:12.778Z,65.29
2022-11-16T13:07:10.878Z,64.76
2022-11-16T13:09:48.038Z,64.65
2022-11-16T13:12:23.732Z,64.07
2022-11-16T13:14:56.395Z,64.72
2022-11-16T13:17:33.684Z,65.13
2022-11-16T13:20:32.556Z,64.66
2022-11-16T13:23:40.188Z,64.46
2022-11-16T13:26:18.650Z,64.95
2022-11-16T13:29:00.418Z,64.52
2022-11-16T13:31:44.661Z,64.58
2022-11-16T13:34:24.998Z,64.44
2022-11-16T13:36:55.218Z,64.60
2022-11-16T13:39:56.426Z,65.98
2022-11-16T13:42:27.194Z,64.87
2022-11-16T13:45:17.982Z,65.51
2022-11-16T13:47:54.022Z,65.52
2022-11-16T13:50:37.753Z,65.40
2022-11-16T13:56:09.376Z,64.46
2022-11-16T13:58:46.473Z,64.33
2022-11-16T14:01:17.654Z,62.74
2022-11-16T14:03:52.611Z,62.84
2022-11-16T14:06:22.734Z,62.95
2022-11-16T14:08:56.704Z,62.25
2022-11-16T14:11:39.537Z,62.15
2022-11-16T14:14:33.906Z,62.50
2022-11-16T14:17:04.151Z,62.64
2022-11-16T14:19:44.428Z,61.72
2022-11-16T14:22:20.374Z,61.73
2022-11-16T14:25:06.770Z,61.29
2022-11-16T14:27:57.131Z,61.42
2022-11-16T14:30:51.149Z,60.18
2022-11-16T14:33:39.501Z,61.15
2022-11-16T14:36:11.469Z,61.64
2022-11-16T14:38:43.857Z,61.36
2022-11-16T14:41:27.342Z,60.43
2022-11-16T14:43:58.709Z,61.39
2022-11-16T14:46:34.920Z,61.32
2022-11-16T14:49:05.473Z,61.43
2022-11-16T14:51:39.257Z,61.10
2022-11-16T14:54:40.498Z,60.55
2022-11-16T14:57:19.550Z,60.90
2022-11-16T15:00:06.391Z,61.13
2022-11-16T15:02:37.397Z,60.47
2022-11-16T15:05:07.929Z,60.61
2022-11-16T15:07:38.649Z,61.07
2022-11-16T15:10:16.642Z,60.65
2022-11-16T15:12:51.793Z,61.52
2022-11-16T15:15:28.193Z,61.00
2022-11-16T15:18:01.060Z,60.78
2022-11-16T15:20:34.089Z,61.04
2022-11-16T15:23:06.256Z,60.75
2022-11-16T15:25:54.448Z,60.44
2022-11-16T15:28:27.353Z,60.84
2022-11-16T15:31:00.850Z,61.20
2022-11-16T15:33:39.366Z,60.43
2022-11-16T15:36:38.005Z,60.41
2022-11-16T15:39:20.641Z,60.98
2022-11-16T15:41:52.041Z,60.95
2022-11-16T15:44:23.766Z,60.95
2022-11-16T15:46:56.187Z,60.86
2022-11-16T15:49:32.054Z,60.92
2022-11-16T15:52:02.778Z,61.09
2022-11-16T15:55:04.779Z,61.01
2022-11-16T15:57:35.250Z,61.24
2022-11-16T16:00:05.808Z,60.67
2022-11-16T16:02:36.151Z,60.88
2022-11-16T16:05:06.797Z,61.36
2022-11-16T16:07:41.418Z,61.14
2022-11-16T16:10:24.854Z,60.76
2022-11-16T16:12:59.681Z,60.75
2022-11-16T16:15:36.324Z,60.72
2022-11-16T16:18:36.833Z,60.72
2022-11-16T16:21:07.252Z,61.06
2022-11-16T16:23:48.628Z,60.87
2022-11-16T16:26:18.753Z,61.24
2022-11-16T16:28:49.725Z,61.01
2022-11-16T16:31:20.010Z,61.00
2022-11-16T16:33:50.255Z,61.29
2022-11-16T16:36:20.625Z,60.80
2022-11-16T16:38:50.781Z,61.16
2022-11-16T16:41:24.359Z,61.01
2022-11-16T16:43:55.004Z,61.19
2022-11-16T16:46:25.235Z,61.32
2022-11-16T16:48:55.363Z,61.31
2022-11-16T16:51:25.585Z,61.30
2022-11-16T16:53:55.721Z,61.08
2022-11-16T16:56:25.980Z,61.40
2022-11-16T16:58:56.063Z,61.19
2022-11-16T17:01:26.801Z,61.18
2022-11-16T17:03:56.916Z,60.90
2022-11-16T17:06:27.086Z,61.24
2022-11-16T17:08:57.951Z,61.07
2022-11-16T17:11:28.999Z,61.19
2022-11-16T17:13:59.569Z,61.06
2022-11-16T17:16:29.689Z,61.01
2022-11-16T17:18:59.826Z,61.08
2022-11-16T17:21:30.112Z,61.03
2022-11-16T17:24:00.342Z,61.29
2022-11-16T17:26:30.489Z,60.98
2022-11-16T17:29:00.581Z,61.06
2022-11-16T17:31:30.710Z,61.17
2022-11-16T17:34:00.852Z,61.17
2022-11-16T17:36:30.962Z,61.30
2022-11-16T17:39:01.262Z,61.29
2022-11-16T17:41:31.461Z,60.98
2022-11-16T17:44:01.643Z,61.28
2022-11-16T17:46:32.014Z,61.12
2022-11-16T17:49:02.274Z,61.33
2022-11-16T17:51:32.487Z,61.27
2022-11-16T17:54:02.705Z,60.92
2022-11-16T17:56:32.832Z,61.23
2022-11-16T17:59:02.943Z,61.06
2022-11-16T18:01:34.046Z,61.15
2022-11-16T18:04:04.986Z,60.87
2022-11-16T18:06:36.003Z,60.96
2022-11-16T18:09:06.494Z,60.85
2022-11-16T18:11:36.634Z,60.83
2022-11-16T18:14:07.580Z,61.02
2022-11-16T18:16:37.904Z,60.83
2022-11-16T18:19:08.103Z,61.22
2022-11-16T18:21:40.807Z,61.12
2022-11-16T18:24:12.068Z,61.17
2022-11-16T18:26:44.272Z,61.01
2022-11-16T18:29:16.220Z,61.11
2022-11-16T18:31:46.433Z,61.37
2022-11-16T18:34:17.218Z,60.66
2022-11-16T18:36:49.939Z,60.63
2022-11-16T18:39:20.001Z,61.21
2022-11-16T18:41:55.114Z,61.40
2022-11-16T18:44:25.794Z,61.20
2022-11-16T18:46:55.939Z,61.19
2022-11-16T18:49:26.028Z,61.03
2022-11-16T18:51:56.300Z,61.03
2022-11-16T18:54:26.505Z,61.38
2022-11-16T18:56:57.082Z,61.12
2022-11-16T18:59:27.186Z,61.09
2022-11-16T19:01:57.368Z,60.86
2022-11-16T19:04:29.432Z,60.99
2022-11-16T19:06:59.552Z,60.93
2022-11-16T19:09:29.890Z,61.07
2022-11-16T19:12:01.342Z,60.78
2022-11-16T19:14:31.429Z,60.83
2022-11-16T19:17:01.667Z,60.60
2022-11-16T19:19:31.920Z,60.51
2022-11-16T19:22:02.171Z,61.04
2022-11-16T19:24:32.667Z,60.71
2022-11-16T19:27:03.143Z,60.58
2022-11-16T19:29:33.359Z,60.32
2022-11-16T19:32:03.802Z,60.37
2022-11-16T19:34:34.147Z,60.44
2022-11-16T19:37:04.310Z,60.41
2022-11-16T19:39:34.477Z,60.05
2022-11-16T19:42:04.788Z,60.54
2022-11-16T19:44:34.880Z,60.14
2022-11-16T19:47:06.491Z,59.92
2022-11-16T19:49:36.575Z,60.12
2022-11-16T19:52:06.715Z,60.05
2022-11-16T19:54:36.793Z,59.80
2022-11-16T19:57:07.015Z,60.37
2022-11-16T19:59:37.511Z,59.96
2022-11-16T20:02:10.315Z,59.89
2022-11-16T20:04:40.435Z,59.93
2022-11-16T20:07:12.017Z,60.15
2022-11-16T20:09:42.446Z,60.00
2022-11-16T20:12:12.580Z,60.47
2022-11-16T20:14:42.748Z,60.21
2022-11-16T20:17:13.528Z,60.01
2022-11-16T20:19:43.714Z,60.57
2022-11-16T20:22:13.864Z,60.75
2022-11-16T20:24:44.023Z,60.53
2022-11-16T20:27:14.133Z,60.42
2022-11-16T20:29:44.327Z,60.46
2022-11-16T20:32:14.402Z,60.60
2022-11-16T20:34:44.661Z,60.73
2022-11-16T20:37:16.476Z,60.73
2022-11-16T20:39:47.363Z,60.26
2022-11-16T20:42:17.422Z,61.33
2022-11-16T20:44:47.537Z,61.09
2022-11-16T20:47:18.682Z,60.47
2022-11-16T20:49:48.795Z,61.12
2022-11-16T20:52:19.266Z,61.05
2022-11-16T20:54:49.398Z,61.08
2022-11-16T20:57:19.634Z,61.03
2022-11-16T20:59:49.782Z,61.31
2022-11-16T21:02:20.093Z,61.20
2022-11-16T21:04:52.814Z,61.25
2022-11-16T21:07:26.385Z,61.37
2022-11-16T21:10:15.220Z,60.76
2022-11-16T21:13:04.306Z,60.95
2022-11-16T21:15:34.460Z,60.78
2022-11-16T21:18:04.781Z,61.14
2022-11-16T21:20:35.125Z,61.07
2022-11-16T21:23:05.313Z,60.92
2022-11-16T21:25:36.826Z,61.41
2022-11-16T21:28:06.971Z,60.87
2022-11-16T21:30:37.032Z,60.98
2022-11-16T21:33:07.187Z,60.91
2022-11-16T21:35:37.256Z,60.89
2022-11-16T21:38:07.399Z,60.62
2022-11-16T21:40:37.692Z,60.80
2022-11-16T21:43:07.862Z,60.93
2022-11-16T21:45:38.028Z,61.05
2022-11-16T21:48:08.224Z,60.84
2022-11-16T21:50:38.837Z,60.79
2022-11-16T21:53:09.778Z,60.83
2022-11-16T21:55:39.891Z,61.04
2022-11-16T21:58:10.038Z,60.52
2022-11-16T22:00:40.096Z,60.81
2022-11-16T22:03:10.407Z,60.68
2022-11-16T22:05:58.905Z,60.95
2022-11-16T22:08:29.085Z,60.84
2022-11-16T22:14:05.589Z,60.67
2022-11-16T22:16:36.268Z,60.58
2022-11-16T22:19:06.488Z,60.26
2022-11-16T22:21:36.836Z,60.79
2022-11-16T22:24:07.501Z,61.12
2022-11-16T22:26:38.489Z,60.92
2022-11-16T22:29:08.736Z,60.53
2022-11-16T22:31:39.112Z,61.10
2022-11-16T22:34:09.393Z,60.23
2022-11-16T22:36:39.716Z,60.52
2022-11-16T22:39:10.248Z,60.51
2022-11-16T22:41:40.603Z,60.48
2022-11-16T22:44:10.878Z,60.67
2022-11-16T22:46:41.228Z,60.66
2022-11-16T22:49:11.673Z,60.55
2022-11-16T22:51:42.156Z,60.45
2022-11-16T22:54:13.203Z,60.43
2022-11-16T22:56:43.733Z,60.40
2022-11-16T22:59:14.750Z,60.45
2022-11-16T23:01:44.993Z,60.55
2022-11-16T23:04:15.379Z,59.83
2022-11-16T23:06:45.668Z,60.29
2022-11-16T23:09:16.089Z,60.28
2022-11-16T23:12:04.852Z,60.17
2022-11-16T23:14:53.645Z,60.23
2022-11-16T23:17:23.947Z,60.35
2022-11-16T23:20:17.458Z,60.48
2022-11-16T23:23:06.700Z,60.48
2022-11-16T23:25:55.761Z,60.42
2022-11-16T23:28:26.432Z,60.65
2022-11-16T23:30:56.763Z,60.39
2022-11-16T23:33:44.101Z,60.64
2022-11-16T23:36:15.017Z,60.25
2022-11-16T23:38:45.274Z,60.15
2022-11-16T23:41:33.857Z,59.85
2022-11-16T23:44:04.348Z,60.14
2022-11-16T23:46:34.768Z,60.03
2022-11-16T23:49:05.206Z,60.39
2022-11-16T23:51:35.505Z,60.17
2022-11-16T23:54:07.043Z,60.12
2022-11-16T23:56:37.292Z,60.22
2022-11-16T23:59:08.126Z,60.22
